Terminal Aerodrome Forecast
Issued by NWS Quad Cities IA IL

Home | Current Version | Previous Version | Text Only | Print | Product List | Glossary On
Versions: 1 2 3 4 5 6 7 8 9 10 11 12 13 14 15 16 17 18 19 20 21 22
000
FTUS43 KDVN 180500
TAFMLI
TAF
KMLI 180520Z 1806/1906 VRB03KT 6SM BR SCT025 BKN035
     FM180900 11003KT 4SM BR SCT004 SCT025
      TEMPO 1811/1814 1 1/2SM BR BKN004
     FM181400 16005KT 6SM BR BKN015
     FM181700 20008KT P6SM BKN035 PROB30 1900/1904 5SM -TSRA BR
      BKN020CB=

USA.gov is the U.S. government's official web portal to all federal, state and local government web resources and services.